ZPPP/KMG METAR and TAF weather

Enter ICAO airport designator
Station Type Date Time Source
ZPPP METAR 2021/10/24 22:00 UTC NOAA

ZPPP 242200Z 22003MPS 7000 SCT003 SCT016 OVC030 12/12 Q1025 NOSIG


Station Type Date Time Source
ZPPP Decoded METAR 2021/10/24 22:00 UTC NOAA

Kunming, China (ZPPP) 25-01N 102-41E 1892M
Oct 24, 2021 - 06:00 PM EDT / 2021.10.24 2200 UTC
Wind: from the SW (220 degrees) at 7 MPH (6 KT):0
Visibility: 4 mile(s):0
Sky conditions: overcast
Temperature: 53 F (12 C)
Dew Point: 53 F (12 C)
Relative Humidity: 100%
Pressure (altimeter): 30.27 in. Hg (1025 hPa)
ob: ZPPP 242200Z 22003MPS 7000 SCT003 SCT016 OVC030 12/12 Q1025 NOSIG
cycle: 22

Station Type Date Time Source
ZPPP TAF 2021/10/24 18:04 UTC NOAA

TAF ZPPP 241509Z 2418/2518 22004MPS 4000 BR SCT020 BKN030 TX15/2508Z TN10/2423Z

Example: see airport list